sensor_id;sensor_type;location;lat;lon;timestamp;temperature;humidity
5476;DHT22;2760;50.000;9.194;2023-10-08T00:01:11;14.20;99.90
5476;DHT22;2760;50.000;9.194;2023-10-08T00:03:39;14.40;99.90
5476;DHT22;2760;50.000;9.194;2023-10-08T00:08:42;14.50;99.90
5476;DHT22;2760;50.000;9.194;2023-10-08T00:11:09;14.40;99.90
5476;DHT22;2760;50.000;9.194;2023-10-08T00:13:41;14.50;99.90
5476;DHT22;2760;50.000;9.194;2023-10-08T00:16:14;14.50;99.90
5476;DHT22;2760;50.000;9.194;2023-10-08T00:18:43;14.40;99.90
5476;DHT22;2760;50.000;9.194;2023-10-08T00:21:17;14.40;99.90
5476;DHT22;2760;50.000;9.194;2023-10-08T00:23:46;15.80;99.90
5476;DHT22;2760;50.000;9.194;2023-10-08T00:26:18;14.40;99.90
5476;DHT22;2760;50.000;9.194;2023-10-08T00:28:54;14.30;99.90
5476;DHT22;2760;50.000;9.194;2023-10-08T00:31:24;14.30;99.90
5476;DHT22;2760;50.000;9.194;2023-10-08T00:33:56;14.60;99.90
5476;DHT22;2760;50.000;9.194;2023-10-08T00:36:25;14.30;99.90
5476;DHT22;2760;50.000;9.194;2023-10-08T00:38:52;14.30;99.90
5476;DHT22;2760;50.000;9.194;2023-10-08T00:41:24;14.30;99.90
5476;DHT22;2760;50.000;9.194;2023-10-08T00:43:54;14.70;99.90
5476;DHT22;2760;50.000;9.194;2023-10-08T00:46:29;14.30;99.90
5476;DHT22;2760;50.000;9.194;2023-10-08T00:49:00;14.30;99.90
5476;DHT22;2760;50.000;9.194;2023-10-08T00:51:50;16.50;99.90
5476;DHT22;2760;50.000;9.194;2023-10-08T00:54:29;14.40;99.90
5476;DHT22;2760;50.000;9.194;2023-10-08T00:56:59;15.30;99.90
5476;DHT22;2760;50.000;9.194;2023-10-08T00:59:32;14.90;99.90
5476;DHT22;2760;50.000;9.194;2023-10-08T01:02:09;14.50;99.90
5476;DHT22;2760;50.000;9.194;2023-10-08T01:04:41;14.50;99.90
5476;DHT22;2760;50.000;9.194;2023-10-08T01:07:11;14.50;99.90
5476;DHT22;2760;50.000;9.194;2023-10-08T01:09:42;14.80;99.90
5476;DHT22;2760;50.000;9.194;2023-10-08T01:12:18;14.40;99.90
5476;DHT22;2760;50.000;9.194;2023-10-08T01:14:53;14.50;99.90
5476;DHT22;2760;50.000;9.194;2023-10-08T01:17:32;14.50;99.90
5476;DHT22;2760;50.000;9.194;2023-10-08T01:20:11;14.40;99.90
5476;DHT22;2760;50.000;9.194;2023-10-08T01:22:51;13.70;99.90
5476;DHT22;2760;50.000;9.194;2023-10-08T01:25:18;14.70;99.90
5476;DHT22;2760;50.000;9.194;2023-10-08T01:27:55;12.00;99.90
5476;DHT22;2760;50.000;9.194;2023-10-08T01:30:26;14.40;99.90
5476;DHT22;2760;50.000;9.194;2023-10-08T01:33:00;14.60;99.90
5476;DHT22;2760;50.000;9.194;2023-10-08T01:35:30;14.40;99.90
5476;DHT22;2760;50.000;9.194;2023-10-08T01:38:01;14.70;99.90
5476;DHT22;2760;50.000;9.194;2023-10-08T01:40:30;14.50;99.90
5476;DHT22;2760;50.000;9.194;2023-10-08T01:42:59;14.40;99.90
5476;DHT22;2760;50.000;9.194;2023-10-08T01:45:28;15.20;99.90
5476;DHT22;2760;50.000;9.194;2023-10-08T01:47:56;14.40;99.90
5476;DHT22;2760;50.000;9.194;2023-10-08T01:50:23;14.20;99.90
5476;DHT22;2760;50.000;9.194;2023-10-08T01:52:51;14.50;99.90
5476;DHT22;2760;50.000;9.194;2023-10-08T01:55:22;14.70;99.90
5476;DHT22;2760;50.000;9.194;2023-10-08T01:57:50;14.40;99.90
5476;DHT22;2760;50.000;9.194;2023-10-08T02:00:18;14.30;99.90
5476;DHT22;2760;50.000;9.194;2023-10-08T02:02:46;14.30;99.90
5476;DHT22;2760;50.000;9.194;2023-10-08T02:05:16;16.30;99.90
5476;DHT22;2760;50.000;9.194;2023-10-08T02:07:44;14.30;99.90
5476;DHT22;2760;50.000;9.194;2023-10-08T02:10:14;15.40;99.90
5476;DHT22;2760;50.000;9.194;2023-10-08T02:12:45;14.40;99.90
5476;DHT22;2760;50.000;9.194;2023-10-08T02:15:12;14.50;99.90
5476;DHT22;2760;50.000;9.194;2023-10-08T02:17:39;14.50;99.90
5476;DHT22;2760;50.000;9.194;2023-10-08T02:20:07;14.60;99.90
5476;DHT22;2760;50.000;9.194;2023-10-08T02:22:35;14.40;99.90
5476;DHT22;2760;50.000;9.194;2023-10-08T02:25:04;14.70;99.90
5476;DHT22;2760;50.000;9.194;2023-10-08T02:27:34;14.60;99.90
5476;DHT22;2760;50.000;9.194;2023-10-08T02:30:06;13.30;99.90
5476;DHT22;2760;50.000;9.194;2023-10-08T02:32:35;12.10;99.90
5476;DHT22;2760;50.000;9.194;2023-10-08T02:35:06;14.70;99.90
5476;DHT22;2760;50.000;9.194;2023-10-08T02:37:35;14.60;99.90
5476;DHT22;2760;50.000;9.194;2023-10-08T02:40:09;14.80;99.90
5476;DHT22;2760;50.000;9.194;2023-10-08T02:42:46;14.50;99.90
5476;DHT22;2760;50.000;9.194;2023-10-08T02:45:22;13.50;99.90
5476;DHT22;2760;50.000;9.194;2023-10-08T02:47:51;15.60;99.90
5476;DHT22;2760;50.000;9.194;2023-10-08T02:50:18;14.70;99.90
5476;DHT22;2760;50.000;9.194;2023-10-08T02:52:48;14.70;99.90
5476;DHT22;2760;50.000;9.194;2023-10-08T02:55:19;14.70;99.90
5476;DHT22;2760;50.000;9.194;2023-10-08T02:58:02;14.70;99.90
5476;DHT22;2760;50.000;9.194;2023-10-08T03:00:31;14.60;99.90
5476;DHT22;2760;50.000;9.194;2023-10-08T03:03:00;14.70;99.90
5476;DHT22;2760;50.000;9.194;2023-10-08T03:05:35;14.50;99.90
5476;DHT22;2760;50.000;9.194;2023-10-08T03:08:07;14.60;99.90
5476;DHT22;2760;50.000;9.194;2023-10-08T03:10:37;12.30;99.90
5476;DHT22;2760;50.000;9.194;2023-10-08T03:13:06;15.80;99.90
5476;DHT22;2760;50.000;9.194;2023-10-08T03:15:42;14.50;99.90
5476;DHT22;2760;50.000;9.194;2023-10-08T03:18:33;15.00;99.90
5476;DHT22;2760;50.000;9.194;2023-10-08T03:21:03;14.30;99.90
5476;DHT22;2760;50.000;9.194;2023-10-08T03:23:31;14.20;99.90
5476;DHT22;2760;50.000;9.194;2023-10-08T03:26:02;12.10;99.90
5476;DHT22;2760;50.000;9.194;2023-10-08T03:28:38;15.10;99.90
5476;DHT22;2760;50.000;9.194;2023-10-08T03:31:09;14.40;99.90
5476;DHT22;2760;50.000;9.194;2023-10-08T03:33:44;14.40;99.90
5476;DHT22;2760;50.000;9.194;2023-10-08T03:36:16;12.50;99.90
5476;DHT22;2760;50.000;9.194;2023-10-08T03:38:48;15.80;99.90
5476;DHT22;2760;50.000;9.194;2023-10-08T03:41:29;15.40;99.90
5476;DHT22;2760;50.000;9.194;2023-10-08T03:44:04;14.30;99.90
5476;DHT22;2760;50.000;9.194;2023-10-08T03:46:41;14.40;99.90
5476;DHT22;2760;50.000;9.194;2023-10-08T03:49:09;14.40;99.90
5476;DHT22;2760;50.000;9.194;2023-10-08T03:51:51;14.30;99.90
5476;DHT22;2760;50.000;9.194;2023-10-08T03:54:27;14.30;99.90
5476;DHT22;2760;50.000;9.194;2023-10-08T03:57:01;14.50;99.90
5476;DHT22;2760;50.000;9.194;2023-10-08T03:59:33;14.30;99.90
5476;DHT22;2760;50.000;9.194;2023-10-08T04:02:07;14.20;99.90
5476;DHT22;2760;50.000;9.194;2023-10-08T04:04:40;14.20;99.90
5476;DHT22;2760;50.000;9.194;2023-10-08T04:07:20;14.70;99.90
5476;DHT22;2760;50.000;9.194;2023-10-08T04:10:06;14.40;99.90
5476;DHT22;2760;50.000;9.194;2023-10-08T04:13:05;14.30;99.90
5476;DHT22;2760;50.000;9.194;2023-10-08T04:15:34;16.00;99.90
5476;DHT22;2760;50.000;9.194;2023-10-08T04:18:12;14.60;99.90
5476;DHT22;2760;50.000;9.194;2023-10-08T04:20:40;15.40;99.90
5476;DHT22;2760;50.000;9.194;2023-10-08T04:23:26;14.70;99.90
5476;DHT22;2760;50.000;9.194;2023-10-08T04:25:55;14.40;99.90
5476;DHT22;2760;50.000;9.194;2023-10-08T04:28:23;14.70;99.90
5476;DHT22;2760;50.000;9.194;2023-10-08T04:30:58;14.70;99.90
5476;DHT22;2760;50.000;9.194;2023-10-08T04:33:58;12.90;99.90
5476;DHT22;2760;50.000;9.194;2023-10-08T04:36:27;14.80;99.90
5476;DHT22;2760;50.000;9.194;2023-10-08T04:42:09;14.70;99.90
5476;DHT22;2760;50.000;9.194;2023-10-08T04:44:43;14.50;99.90
5476;DHT22;2760;50.000;9.194;2023-10-08T04:47:11;14.50;99.90
5476;DHT22;2760;50.000;9.194;2023-10-08T04:49:58;16.20;99.90
5476;DHT22;2760;50.000;9.194;2023-10-08T04:52:30;14.40;99.90
5476;DHT22;2760;50.000;9.194;2023-10-08T04:54:59;14.30;99.90
5476;DHT22;2760;50.000;9.194;2023-10-08T04:57:38;15.90;99.90
5476;DHT22;2760;50.000;9.194;2023-10-08T05:00:09;14.10;99.90
5476;DHT22;2760;50.000;9.194;2023-10-08T05:02:40;14.10;99.90
5476;DHT22;2760;50.000;9.194;2023-10-08T05:05:16;13.50;99.90
5476;DHT22;2760;50.000;9.194;2023-10-08T05:07:49;14.20;99.90
5476;DHT22;2760;50.000;9.194;2023-10-08T05:10:44;15.70;99.90
5476;DHT22;2760;50.000;9.194;2023-10-08T05:16:00;14.20;99.90
5476;DHT22;2760;50.000;9.194;2023-10-08T05:18:45;14.30;99.90
5476;DHT22;2760;50.000;9.194;2023-10-08T05:21:34;14.30;99.90
5476;DHT22;2760;50.000;9.194;2023-10-08T05:24:18;13.30;99.90
5476;DHT22;2760;50.000;9.194;2023-10-08T05:26:53;16.50;99.90
5476;DHT22;2760;50.000;9.194;2023-10-08T05:29:46;14.30;99.90
5476;DHT22;2760;50.000;9.194;2023-10-08T05:32:37;14.30;99.90
5476;DHT22;2760;50.000;9.194;2023-10-08T05:38:01;14.20;99.90
5476;DHT22;2760;50.000;9.194;2023-10-08T05:40:39;14.30;99.90
5476;DHT22;2760;50.000;9.194;2023-10-08T05:43:27;14.30;99.90
5476;DHT22;2760;50.000;9.194;2023-10-08T05:46:16;14.10;99.90
5476;DHT22;2760;50.000;9.194;2023-10-08T05:49:00;14.20;99.90
5476;DHT22;2760;50.000;9.194;2023-10-08T05:51:42;14.20;99.90
5476;DHT22;2760;50.000;9.194;2023-10-08T05:54:24;14.10;99.90
5476;DHT22;2760;50.000;9.194;2023-10-08T05:57:04;14.40;99.90
5476;DHT22;2760;50.000;9.194;2023-10-08T05:59:42;14.50;99.90
5476;DHT22;2760;50.000;9.194;2023-10-08T06:02:42;14.30;99.90
5476;DHT22;2760;50.000;9.194;2023-10-08T06:05:34;14.50;99.90
5476;DHT22;2760;50.000;9.194;2023-10-08T06:08:10;14.50;99.90
5476;DHT22;2760;50.000;9.194;2023-10-08T06:10:42;14.60;99.90
5476;DHT22;2760;50.000;9.194;2023-10-08T06:13:14;14.70;99.90
5476;DHT22;2760;50.000;9.194;2023-10-08T06:15:44;14.70;99.90
5476;DHT22;2760;50.000;9.194;2023-10-08T06:18:15;14.60;99.90
5476;DHT22;2760;50.000;9.194;2023-10-08T06:20:42;14.80;99.90
5476;DHT22;2760;50.000;9.194;2023-10-08T06:23:10;14.90;99.90
5476;DHT22;2760;50.000;9.194;2023-10-08T06:25:38;15.00;99.90
5476;DHT22;2760;50.000;9.194;2023-10-08T06:28:17;15.00;99.90
5476;DHT22;2760;50.000;9.194;2023-10-08T06:30:47;14.50;99.90
5476;DHT22;2760;50.000;9.194;2023-10-08T06:33:15;15.10;99.90
5476;DHT22;2760;50.000;9.194;2023-10-08T06:35:43;15.30;99.90
5476;DHT22;2760;50.000;9.194;2023-10-08T06:38:22;15.40;99.90
5476;DHT22;2760;50.000;9.194;2023-10-08T06:40:53;16.40;99.90
5476;DHT22;2760;50.000;9.194;2023-10-08T06:43:22;15.10;99.90
5476;DHT22;2760;50.000;9.194;2023-10-08T06:45:51;15.70;99.90
5476;DHT22;2760;50.000;9.194;2023-10-08T06:48:21;15.60;99.90
5476;DHT22;2760;50.000;9.194;2023-10-08T06:50:51;15.50;99.90
5476;DHT22;2760;50.000;9.194;2023-10-08T06:55:49;14.60;99.90
5476;DHT22;2760;50.000;9.194;2023-10-08T06:58:23;16.00;99.90
5476;DHT22;2760;50.000;9.194;2023-10-08T07:00:51;15.90;99.90
5476;DHT22;2760;50.000;9.194;2023-10-08T07:03:21;17.80;99.90
5476;DHT22;2760;50.000;9.194;2023-10-08T07:06:01;16.00;99.90
5476;DHT22;2760;50.000;9.194;2023-10-08T07:08:52;16.10;99.90
5476;DHT22;2760;50.000;9.194;2023-10-08T07:11:21;16.10;99.90
5476;DHT22;2760;50.000;9.194;2023-10-08T07:13:51;13.70;99.90
5476;DHT22;2760;50.000;9.194;2023-10-08T07:16:19;16.30;99.90
5476;DHT22;2760;50.000;9.194;2023-10-08T07:18:46;16.20;99.90
5476;DHT22;2760;50.000;9.194;2023-10-08T07:21:18;16.30;99.90
5476;DHT22;2760;50.000;9.194;2023-10-08T07:23:54;17.70;99.90
5476;DHT22;2760;50.000;9.194;2023-10-08T07:26:24;16.40;99.90
5476;DHT22;2760;50.000;9.194;2023-10-08T07:28:53;16.50;99.90
5476;DHT22;2760;50.000;9.194;2023-10-08T07:31:22;16.50;99.90
5476;DHT22;2760;50.000;9.194;2023-10-08T07:33:50;18.40;99.90
5476;DHT22;2760;50.000;9.194;2023-10-08T07:36:22;17.60;99.90
5476;DHT22;2760;50.000;9.194;2023-10-08T07:38:50;16.60;99.90
5476;DHT22;2760;50.000;9.194;2023-10-08T07:41:17;16.70;99.90
5476;DHT22;2760;50.000;9.194;2023-10-08T07:43:46;17.10;99.90
5476;DHT22;2760;50.000;9.194;2023-10-08T07:46:22;16.80;99.90
5476;DHT22;2760;50.000;9.194;2023-10-08T07:48:51;16.90;99.90
5476;DHT22;2760;50.000;9.194;2023-10-08T07:51:19;17.00;99.90
5476;DHT22;2760;50.000;9.194;2023-10-08T07:53:47;16.90;99.90
5476;DHT22;2760;50.000;9.194;2023-10-08T07:56:14;18.20;99.90
5476;DHT22;2760;50.000;9.194;2023-10-08T07:58:44;17.30;99.90
5476;DHT22;2760;50.000;9.194;2023-10-08T08:01:13;17.40;99.90
5476;DHT22;2760;50.000;9.194;2023-10-08T08:03:44;17.30;99.90
5476;DHT22;2760;50.000;9.194;2023-10-08T08:06:14;17.20;99.90
5476;DHT22;2760;50.000;9.194;2023-10-08T08:08:42;17.40;99.90
5476;DHT22;2760;50.000;9.194;2023-10-08T08:11:10;17.40;99.90
5476;DHT22;2760;50.000;9.194;2023-10-08T08:13:39;17.50;99.90
5476;DHT22;2760;50.000;9.194;2023-10-08T08:16:10;17.60;99.90
5476;DHT22;2760;50.000;9.194;2023-10-08T08:18:47;17.60;99.90
5476;DHT22;2760;50.000;9.194;2023-10-08T08:21:16;17.70;99.90
5476;DHT22;2760;50.000;9.194;2023-10-08T08:23:47;17.80;99.90
5476;DHT22;2760;50.000;9.194;2023-10-08T08:26:18;18.00;99.90
5476;DHT22;2760;50.000;9.194;2023-10-08T08:29:06;18.00;99.90
5476;DHT22;2760;50.000;9.194;2023-10-08T08:31:35;18.00;99.90
5476;DHT22;2760;50.000;9.194;2023-10-08T08:34:06;18.10;99.90
5476;DHT22;2760;50.000;9.194;2023-10-08T08:36:39;18.10;99.90
5476;DHT22;2760;50.000;9.194;2023-10-08T08:39:12;18.00;99.90
5476;DHT22;2760;50.000;9.194;2023-10-08T08:41:58;17.90;99.90
5476;DHT22;2760;50.000;9.194;2023-10-08T08:44:28;17.80;99.90
5476;DHT22;2760;50.000;9.194;2023-10-08T08:46:58;16.40;99.90
5476;DHT22;2760;50.000;9.194;2023-10-08T08:49:32;17.90;99.90
5476;DHT22;2760;50.000;9.194;2023-10-08T08:52:04;17.90;99.90
5476;DHT22;2760;50.000;9.194;2023-10-08T08:54:31;17.90;99.90
5476;DHT22;2760;50.000;9.194;2023-10-08T08:57:04;18.20;99.90
5476;DHT22;2760;50.000;9.194;2023-10-08T08:59:32;18.40;99.90
5476;DHT22;2760;50.000;9.194;2023-10-08T09:02:02;18.20;99.90
5476;DHT22;2760;50.000;9.194;2023-10-08T09:04:36;18.40;99.90
5476;DHT22;2760;50.000;9.194;2023-10-08T09:07:03;18.40;99.90
5476;DHT22;2760;50.000;9.194;2023-10-08T09:09:35;18.60;99.90
5476;DHT22;2760;50.000;9.194;2023-10-08T09:12:07;18.70;99.90
5476;DHT22;2760;50.000;9.194;2023-10-08T09:14:37;18.80;99.90
5476;DHT22;2760;50.000;9.194;2023-10-08T09:17:05;19.20;99.90
5476;DHT22;2760;50.000;9.194;2023-10-08T09:19:37;19.40;99.90
5476;DHT22;2760;50.000;9.194;2023-10-08T09:22:07;19.50;99.90
5476;DHT22;2760;50.000;9.194;2023-10-08T09:24:37;19.50;99.90
5476;DHT22;2760;50.000;9.194;2023-10-08T09:27:05;19.20;99.90
5476;DHT22;2760;50.000;9.194;2023-10-08T09:29:33;19.30;99.90
5476;DHT22;2760;50.000;9.194;2023-10-08T09:32:05;19.60;99.90
5476;DHT22;2760;50.000;9.194;2023-10-08T09:34:33;19.60;99.90
5476;DHT22;2760;50.000;9.194;2023-10-08T09:37:01;19.80;99.90
5476;DHT22;2760;50.000;9.194;2023-10-08T09:39:30;20.20;99.90
5476;DHT22;2760;50.000;9.194;2023-10-08T09:42:03;20.40;99.90
5476;DHT22;2760;50.000;9.194;2023-10-08T09:44:32;20.20;99.90
5476;DHT22;2760;50.000;9.194;2023-10-08T09:47:05;20.20;99.90
5476;DHT22;2760;50.000;9.194;2023-10-08T09:49:39;20.30;99.90
5476;DHT22;2760;50.000;9.194;2023-10-08T09:52:08;20.30;99.90
5476;DHT22;2760;50.000;9.194;2023-10-08T09:54:40;20.20;99.90
5476;DHT22;2760;50.000;9.194;2023-10-08T09:57:10;20.20;99.90
5476;DHT22;2760;50.000;9.194;2023-10-08T09:59:38;19.90;99.90
5476;DHT22;2760;50.000;9.194;2023-10-08T10:02:07;20.10;99.90
5476;DHT22;2760;50.000;9.194;2023-10-08T10:04:42;19.90;99.90
5476;DHT22;2760;50.000;9.194;2023-10-08T10:07:12;20.20;99.90
5476;DHT22;2760;50.000;9.194;2023-10-08T10:09:44;20.10;99.90
5476;DHT22;2760;50.000;9.194;2023-10-08T10:12:15;20.40;99.90
5476;DHT22;2760;50.000;9.194;2023-10-08T10:14:46;20.40;99.90
5476;DHT22;2760;50.000;9.194;2023-10-08T10:17:15;20.50;99.90
5476;DHT22;2760;50.000;9.194;2023-10-08T10:19:44;20.40;99.90
5476;DHT22;2760;50.000;9.194;2023-10-08T10:22:27;20.50;99.90
5476;DHT22;2760;50.000;9.194;2023-10-08T10:24:54;20.30;99.90
5476;DHT22;2760;50.000;9.194;2023-10-08T10:27:23;20.30;99.90
5476;DHT22;2760;50.000;9.194;2023-10-08T10:29:51;20.30;99.90
5476;DHT22;2760;50.000;9.194;2023-10-08T10:32:18;20.30;99.90
5476;DHT22;2760;50.000;9.194;2023-10-08T10:34:45;20.50;99.90
5476;DHT22;2760;50.000;9.194;2023-10-08T10:37:19;20.40;99.90
5476;DHT22;2760;50.000;9.194;2023-10-08T10:39:53;20.60;99.90
5476;DHT22;2760;50.000;9.194;2023-10-08T10:42:24;21.00;99.90
5476;DHT22;2760;50.000;9.194;2023-10-08T10:44:54;21.10;99.90
5476;DHT22;2760;50.000;9.194;2023-10-08T10:47:24;21.10;99.90
5476;DHT22;2760;50.000;9.194;2023-10-08T10:49:54;21.20;99.90
5476;DHT22;2760;50.000;9.194;2023-10-08T10:53:05;21.10;99.90
5476;DHT22;2760;50.000;9.194;2023-10-08T10:55:37;21.20;99.90
5476;DHT22;2760;50.000;9.194;2023-10-08T10:58:03;21.40;99.90
5476;DHT22;2760;50.000;9.194;2023-10-08T11:00:37;21.50;99.90
5476;DHT22;2760;50.000;9.194;2023-10-08T11:03:23;21.40;99.90
5476;DHT22;2760;50.000;9.194;2023-10-08T11:05:58;21.30;99.90
5476;DHT22;2760;50.000;9.194;2023-10-08T11:08:33;21.30;99.90
5476;DHT22;2760;50.000;9.194;2023-10-08T11:11:03;21.40;99.90
5476;DHT22;2760;50.000;9.194;2023-10-08T11:14:11;21.30;99.90
5476;DHT22;2760;50.000;9.194;2023-10-08T11:16:44;21.30;99.90
5476;DHT22;2760;50.000;9.194;2023-10-08T11:19:13;20.90;99.90
5476;DHT22;2760;50.000;9.194;2023-10-08T11:21:50;21.10;99.90
5476;DHT22;2760;50.000;9.194;2023-10-08T11:24:30;21.10;99.90
5476;DHT22;2760;50.000;9.194;2023-10-08T11:29:47;21.10;99.90
5476;DHT22;2760;50.000;9.194;2023-10-08T11:32:20;21.20;99.90
5476;DHT22;2760;50.000;9.194;2023-10-08T11:34:54;21.40;99.90
5476;DHT22;2760;50.000;9.194;2023-10-08T11:37:27;21.40;99.90
5476;DHT22;2760;50.000;9.194;2023-10-08T11:39:56;21.50;99.90
5476;DHT22;2760;50.000;9.194;2023-10-08T11:42:24;21.60;99.90
5476;DHT22;2760;50.000;9.194;2023-10-08T11:45:10;21.50;99.90
5476;DHT22;2760;50.000;9.194;2023-10-08T11:47:51;21.60;99.90
5476;DHT22;2760;50.000;9.194;2023-10-08T11:50:26;21.70;99.90
5476;DHT22;2760;50.000;9.194;2023-10-08T11:52:58;21.70;99.90
5476;DHT22;2760;50.000;9.194;2023-10-08T11:55:31;21.70;99.90
5476;DHT22;2760;50.000;9.194;2023-10-08T11:58:02;21.70;99.90
5476;DHT22;2760;50.000;9.194;2023-10-08T12:00:36;21.70;99.90
5476;DHT22;2760;50.000;9.194;2023-10-08T12:03:09;21.80;99.90
5476;DHT22;2760;50.000;9.194;2023-10-08T12:05:44;21.90;99.90
5476;DHT22;2760;50.000;9.194;2023-10-08T12:08:24;22.20;99.90
5476;DHT22;2760;50.000;9.194;2023-10-08T12:10:54;22.40;99.90
5476;DHT22;2760;50.000;9.194;2023-10-08T12:13:22;22.40;99.90
5476;DHT22;2760;50.000;9.194;2023-10-08T12:15:52;22.50;99.90
5476;DHT22;2760;50.000;9.194;2023-10-08T12:18:31;22.60;99.90
5476;DHT22;2760;50.000;9.194;2023-10-08T12:21:05;22.60;99.90
5476;DHT22;2760;50.000;9.194;2023-10-08T12:23:37;22.70;99.90
5476;DHT22;2760;50.000;9.194;2023-10-08T12:26:08;21.60;99.90
5476;DHT22;2760;50.000;9.194;2023-10-08T12:28:36;22.90;99.90
5476;DHT22;2760;50.000;9.194;2023-10-08T12:31:03;22.80;99.90
5476;DHT22;2760;50.000;9.194;2023-10-08T12:33:32;22.80;99.90
5476;DHT22;2760;50.000;9.194;2023-10-08T12:36:02;22.70;99.90
5476;DHT22;2760;50.000;9.194;2023-10-08T12:38:36;23.10;99.90
5476;DHT22;2760;50.000;9.194;2023-10-08T12:41:04;23.30;99.90
5476;DHT22;2760;50.000;9.194;2023-10-08T12:43:39;23.60;99.90
5476;DHT22;2760;50.000;9.194;2023-10-08T12:46:08;23.90;99.90
5476;DHT22;2760;50.000;9.194;2023-10-08T12:48:49;24.00;99.90
5476;DHT22;2760;50.000;9.194;2023-10-08T12:51:19;24.10;99.90
5476;DHT22;2760;50.000;9.194;2023-10-08T12:53:49;23.90;99.90
5476;DHT22;2760;50.000;9.194;2023-10-08T12:56:24;24.10;99.90
5476;DHT22;2760;50.000;9.194;2023-10-08T12:58:59;24.00;99.90
5476;DHT22;2760;50.000;9.194;2023-10-08T13:01:29;24.10;99.90
5476;DHT22;2760;50.000;9.194;2023-10-08T13:03:58;24.30;99.90
5476;DHT22;2760;50.000;9.194;2023-10-08T13:06:27;24.50;99.90
5476;DHT22;2760;50.000;9.194;2023-10-08T13:08:58;24.60;99.90
5476;DHT22;2760;50.000;9.194;2023-10-08T13:11:26;24.60;99.90
5476;DHT22;2760;50.000;9.194;2023-10-08T13:13:56;24.70;99.90
5476;DHT22;2760;50.000;9.194;2023-10-08T13:16:52;24.50;99.90
5476;DHT22;2760;50.000;9.194;2023-10-08T13:19:21;24.60;99.90
5476;DHT22;2760;50.000;9.194;2023-10-08T13:21:51;24.40;99.90
5476;DHT22;2760;50.000;9.194;2023-10-08T13:24:20;24.40;99.90
5476;DHT22;2760;50.000;9.194;2023-10-08T13:26:47;22.40;99.90
5476;DHT22;2760;50.000;9.194;2023-10-08T13:29:14;24.30;99.90
5476;DHT22;2760;50.000;9.194;2023-10-08T13:31:45;24.40;99.90
5476;DHT22;2760;50.000;9.194;2023-10-08T13:34:13;24.30;99.90
5476;DHT22;2760;50.000;9.194;2023-10-08T13:36:43;23.70;99.90
5476;DHT22;2760;50.000;9.194;2023-10-08T13:39:13;23.30;99.90
5476;DHT22;2760;50.000;9.194;2023-10-08T13:41:44;23.30;99.90
5476;DHT22;2760;50.000;9.194;2023-10-08T13:44:13;23.40;99.90
5476;DHT22;2760;50.000;9.194;2023-10-08T13:46:40;23.40;99.90
5476;DHT22;2760;50.000;9.194;2023-10-08T13:49:15;23.50;99.90
5476;DHT22;2760;50.000;9.194;2023-10-08T13:51:44;23.10;99.90
5476;DHT22;2760;50.000;9.194;2023-10-08T13:54:13;23.10;99.90
5476;DHT22;2760;50.000;9.194;2023-10-08T13:56:40;22.90;99.90
5476;DHT22;2760;50.000;9.194;2023-10-08T13:59:13;22.80;99.90
5476;DHT22;2760;50.000;9.194;2023-10-08T14:07:22;23.00;99.90
5476;DHT22;2760;50.000;9.194;2023-10-08T14:09:50;22.50;99.90
5476;DHT22;2760;50.000;9.194;2023-10-08T14:12:19;22.40;99.90
5476;DHT22;2760;50.000;9.194;2023-10-08T14:14:46;22.30;99.90
5476;DHT22;2760;50.000;9.194;2023-10-08T14:17:17;22.30;99.90
5476;DHT22;2760;50.000;9.194;2023-10-08T14:20:07;22.10;99.90
5476;DHT22;2760;50.000;9.194;2023-10-08T14:22:40;22.00;99.90
5476;DHT22;2760;50.000;9.194;2023-10-08T14:25:09;21.90;99.90
5476;DHT22;2760;50.000;9.194;2023-10-08T14:27:38;21.80;99.90
5476;DHT22;2760;50.000;9.194;2023-10-08T14:30:07;21.80;99.90
5476;DHT22;2760;50.000;9.194;2023-10-08T14:32:41;20.50;99.90
5476;DHT22;2760;50.000;9.194;2023-10-08T14:35:11;21.60;99.90
5476;DHT22;2760;50.000;9.194;2023-10-08T14:37:59;21.80;99.90
5476;DHT22;2760;50.000;9.194;2023-10-08T14:40:45;21.70;99.90
5476;DHT22;2760;50.000;9.194;2023-10-08T14:43:30;21.60;99.90
5476;DHT22;2760;50.000;9.194;2023-10-08T14:46:00;21.60;99.90
5476;DHT22;2760;50.000;9.194;2023-10-08T14:48:30;21.50;99.90
5476;DHT22;2760;50.000;9.194;2023-10-08T14:51:00;21.60;99.90
5476;DHT22;2760;50.000;9.194;2023-10-08T14:53:29;21.50;99.90
5476;DHT22;2760;50.000;9.194;2023-10-08T14:55:57;21.40;99.90
5476;DHT22;2760;50.000;9.194;2023-10-08T14:58:24;21.40;99.90
5476;DHT22;2760;50.000;9.194;2023-10-08T15:00:51;21.60;99.90
5476;DHT22;2760;50.000;9.194;2023-10-08T15:06:05;21.50;99.90
5476;DHT22;2760;50.000;9.194;2023-10-08T15:08:38;21.30;99.90
5476;DHT22;2760;50.000;9.194;2023-10-08T15:11:20;21.30;99.90
5476;DHT22;2760;50.000;9.194;2023-10-08T15:19:52;22.90;99.90
5476;DHT22;2760;50.000;9.194;2023-10-08T15:22:27;21.40;99.90
5476;DHT22;2760;50.000;9.194;2023-10-08T15:28:08;21.00;99.90
5476;DHT22;2760;50.000;9.194;2023-10-08T15:30:39;21.00;99.90
5476;DHT22;2760;50.000;9.194;2023-10-08T15:33:07;19.90;99.90
5476;DHT22;2760;50.000;9.194;2023-10-08T15:35:34;21.00;99.90
5476;DHT22;2760;50.000;9.194;2023-10-08T15:38:00;21.00;99.90
5476;DHT22;2760;50.000;9.194;2023-10-08T15:40:30;20.50;99.90
5476;DHT22;2760;50.000;9.194;2023-10-08T15:42:59;20.90;99.90
5476;DHT22;2760;50.000;9.194;2023-10-08T15:45:27;20.80;99.90
5476;DHT22;2760;50.000;9.194;2023-10-08T15:47:55;20.90;99.90
5476;DHT22;2760;50.000;9.194;2023-10-08T15:50:23;20.90;99.90
5476;DHT22;2760;50.000;9.194;2023-10-08T15:52:53;20.90;99.90
5476;DHT22;2760;50.000;9.194;2023-10-08T15:55:24;20.90;99.90
5476;DHT22;2760;50.000;9.194;2023-10-08T15:57:58;20.80;99.90
5476;DHT22;2760;50.000;9.194;2023-10-08T16:00:35;20.80;99.90
5476;DHT22;2760;50.000;9.194;2023-10-08T16:03:04;20.80;99.90
5476;DHT22;2760;50.000;9.194;2023-10-08T16:05:38;20.70;99.90
5476;DHT22;2760;50.000;9.194;2023-10-08T16:08:07;20.50;99.90
5476;DHT22;2760;50.000;9.194;2023-10-08T16:11:06;20.40;99.90
5476;DHT22;2760;50.000;9.194;2023-10-08T16:13:37;20.30;99.90
5476;DHT22;2760;50.000;9.194;2023-10-08T16:16:10;20.20;99.90
5476;DHT22;2760;50.000;9.194;2023-10-08T16:18:45;20.30;99.90
5476;DHT22;2760;50.000;9.194;2023-10-08T16:21:18;18.10;99.90
5476;DHT22;2760;50.000;9.194;2023-10-08T16:23:47;20.10;99.90
5476;DHT22;2760;50.000;9.194;2023-10-08T16:26:14;20.00;99.90
5476;DHT22;2760;50.000;9.194;2023-10-08T16:28:42;19.90;99.90
5476;DHT22;2760;50.000;9.194;2023-10-08T16:31:23;20.00;99.90
5476;DHT22;2760;50.000;9.194;2023-10-08T16:33:51;19.80;99.90
5476;DHT22;2760;50.000;9.194;2023-10-08T16:36:18;19.80;99.90
5476;DHT22;2760;50.000;9.194;2023-10-08T16:38:45;19.80;99.90
5476;DHT22;2760;50.000;9.194;2023-10-08T16:41:12;19.60;99.90
5476;DHT22;2760;50.000;9.194;2023-10-08T16:43:46;19.60;99.90
5476;DHT22;2760;50.000;9.194;2023-10-08T16:46:15;19.50;99.90
5476;DHT22;2760;50.000;9.194;2023-10-08T16:48:44;19.60;99.90
5476;DHT22;2760;50.000;9.194;2023-10-08T16:51:12;19.50;99.90
5476;DHT22;2760;50.000;9.194;2023-10-08T16:53:40;19.30;99.90
5476;DHT22;2760;50.000;9.194;2023-10-08T16:56:07;19.30;99.90
5476;DHT22;2760;50.000;9.194;2023-10-08T16:58:35;19.20;99.90
5476;DHT22;2760;50.000;9.194;2023-10-08T17:01:05;19.30;99.90
5476;DHT22;2760;50.000;9.194;2023-10-08T17:03:35;19.20;99.90
5476;DHT22;2760;50.000;9.194;2023-10-08T17:06:04;19.10;99.90
5476;DHT22;2760;50.000;9.194;2023-10-08T17:08:33;19.00;99.90
5476;DHT22;2760;50.000;9.194;2023-10-08T17:11:03;19.00;99.90